sensor_id;sensor_type;location;lat;lon;timestamp;temperature;humidity
85671;DHT22;76102;50.890;3.932;2024-03-06T00:02:22;6.40;90.20
85671;DHT22;76102;50.890;3.932;2024-03-06T00:04:47;6.30;90.30
85671;DHT22;76102;50.890;3.932;2024-03-06T00:07:15;6.40;90.30
85671;DHT22;76102;50.890;3.932;2024-03-06T00:58:17;6.10;90.30
85671;DHT22;76102;50.890;3.932;2024-03-06T01:00:45;6.10;90.10
85671;DHT22;76102;50.890;3.932;2024-03-06T01:03:11;6.30;90.00
85671;DHT22;76102;50.890;3.932;2024-03-06T01:05:37;6.30;89.30
85671;DHT22;76102;50.890;3.932;2024-03-06T01:08:03;6.60;87.90
85671;DHT22;76102;50.890;3.932;2024-03-06T01:10:31;6.70;86.90
85671;DHT22;76102;50.890;3.932;2024-03-06T01:12:57;6.50;86.80
85671;DHT22;76102;50.890;3.932;2024-03-06T01:15:22;6.20;88.30
85671;DHT22;76102;50.890;3.932;2024-03-06T01:17:50;6.10;88.50
85671;DHT22;76102;50.890;3.932;2024-03-06T01:20:16;6.00;88.70
85671;DHT22;76102;50.890;3.932;2024-03-06T01:22:42;5.90;89.10
85671;DHT22;76102;50.890;3.932;2024-03-06T01:25:08;5.80;89.10
85671;DHT22;76102;50.890;3.932;2024-03-06T01:27:34;5.90;88.90
85671;DHT22;76102;50.890;3.932;2024-03-06T01:30:02;5.80;88.70
85671;DHT22;76102;50.890;3.932;2024-03-06T01:32:28;5.70;88.30
85671;DHT22;76102;50.890;3.932;2024-03-06T01:34:53;5.70;88.90
85671;DHT22;76102;50.890;3.932;2024-03-06T01:37:21;5.60;88.70
85671;DHT22;76102;50.890;3.932;2024-03-06T01:39:47;5.50;88.80
85671;DHT22;76102;50.890;3.932;2024-03-06T01:42:13;5.30;89.50
85671;DHT22;76102;50.890;3.932;2024-03-06T01:44:38;5.00;90.60
85671;DHT22;76102;50.890;3.932;2024-03-06T01:47:09;4.80;91.20
85671;DHT22;76102;50.890;3.932;2024-03-06T01:49:37;4.80;91.50
85671;DHT22;76102;50.890;3.932;2024-03-06T01:52:03;5.00;90.90
85671;DHT22;76102;50.890;3.932;2024-03-06T01:54:30;5.10;90.40
85671;DHT22;76102;50.890;3.932;2024-03-06T01:56:58;5.60;89.10
85671;DHT22;76102;50.890;3.932;2024-03-06T01:59:28;5.50;88.80
85671;DHT22;76102;50.890;3.932;2024-03-06T02:01:54;5.20;89.00
85671;DHT22;76102;50.890;3.932;2024-03-06T02:04:26;5.30;88.30
85671;DHT22;76102;50.890;3.932;2024-03-06T02:06:53;5.00;89.30
85671;DHT22;76102;50.890;3.932;2024-03-06T02:09:24;4.90;89.00
85671;DHT22;76102;50.890;3.932;2024-03-06T02:11:52;4.80;89.80
85671;DHT22;76102;50.890;3.932;2024-03-06T02:14:20;4.70;89.40
85671;DHT22;76102;50.890;3.932;2024-03-06T02:16:46;4.70;90.10
85671;DHT22;76102;50.890;3.932;2024-03-06T02:19:13;4.50;90.20
85671;DHT22;76102;50.890;3.932;2024-03-06T02:21:39;4.50;90.60
85671;DHT22;76102;50.890;3.932;2024-03-06T02:24:05;4.60;90.70
85671;DHT22;76102;50.890;3.932;2024-03-06T02:26:31;4.90;89.60
85671;DHT22;76102;50.890;3.932;2024-03-06T02:28:59;4.90;89.10
85671;DHT22;76102;50.890;3.932;2024-03-06T02:31:24;5.10;88.80
85671;DHT22;76102;50.890;3.932;2024-03-06T02:33:50;5.30;87.60
85671;DHT22;76102;50.890;3.932;2024-03-06T02:36:16;5.10;88.60
85671;DHT22;76102;50.890;3.932;2024-03-06T02:38:45;5.20;87.90
85671;DHT22;76102;50.890;3.932;2024-03-06T02:41:13;5.30;86.40
85671;DHT22;76102;50.890;3.932;2024-03-06T02:43:41;5.20;85.70
85671;DHT22;76102;50.890;3.932;2024-03-06T02:46:08;4.90;86.20
85671;DHT22;76102;50.890;3.932;2024-03-06T02:48:34;4.70;87.80
85671;DHT22;76102;50.890;3.932;2024-03-06T02:51:04;5.20;87.40
85671;DHT22;76102;50.890;3.932;2024-03-06T02:53:30;5.40;85.10
85671;DHT22;76102;50.890;3.932;2024-03-06T02:55:55;5.40;85.20
85671;DHT22;76102;50.890;3.932;2024-03-06T02:58:21;5.20;85.90
85671;DHT22;76102;50.890;3.932;2024-03-06T03:00:53;5.10;86.00
85671;DHT22;76102;50.890;3.932;2024-03-06T03:03:19;5.20;85.90
85671;DHT22;76102;50.890;3.932;2024-03-06T03:05:45;5.10;85.90
85671;DHT22;76102;50.890;3.932;2024-03-06T03:08:13;5.00;86.40
85671;DHT22;76102;50.890;3.932;2024-03-06T03:10:39;4.90;87.50
85671;DHT22;76102;50.890;3.932;2024-03-06T03:13:06;5.00;87.70
85671;DHT22;76102;50.890;3.932;2024-03-06T03:15:33;4.90;87.90
85671;DHT22;76102;50.890;3.932;2024-03-06T03:17:58;4.60;88.20
85671;DHT22;76102;50.890;3.932;2024-03-06T03:20:24;4.50;88.70
85671;DHT22;76102;50.890;3.932;2024-03-06T03:22:52;4.50;89.10
85671;DHT22;76102;50.890;3.932;2024-03-06T03:25:17;4.40;90.20
85671;DHT22;76102;50.890;3.932;2024-03-06T03:27:43;4.30;90.40
85671;DHT22;76102;50.890;3.932;2024-03-06T03:30:12;4.30;90.60
85671;DHT22;76102;50.890;3.932;2024-03-06T03:32:41;4.20;90.80
85671;DHT22;76102;50.890;3.932;2024-03-06T03:35:11;4.20;90.80
85671;DHT22;76102;50.890;3.932;2024-03-06T03:37:37;4.40;90.70
85671;DHT22;76102;50.890;3.932;2024-03-06T03:40:02;4.80;89.80
85671;DHT22;76102;50.890;3.932;2024-03-06T03:42:28;5.00;88.00
85671;DHT22;76102;50.890;3.932;2024-03-06T03:44:56;4.90;87.70
85671;DHT22;76102;50.890;3.932;2024-03-06T03:47:24;4.60;87.80
85671;DHT22;76102;50.890;3.932;2024-03-06T03:49:52;4.40;89.00
85671;DHT22;76102;50.890;3.932;2024-03-06T03:52:17;4.30;89.70
85671;DHT22;76102;50.890;3.932;2024-03-06T03:54:43;4.20;90.00
85671;DHT22;76102;50.890;3.932;2024-03-06T03:57:11;4.30;88.90
85671;DHT22;76102;50.890;3.932;2024-03-06T03:59:39;4.40;89.00
85671;DHT22;76102;50.890;3.932;2024-03-06T04:02:08;4.40;88.20
85671;DHT22;76102;50.890;3.932;2024-03-06T04:04:34;4.20;89.60
85671;DHT22;76102;50.890;3.932;2024-03-06T04:07:00;4.10;90.00
85671;DHT22;76102;50.890;3.932;2024-03-06T04:09:30;3.70;90.00
85671;DHT22;76102;50.890;3.932;2024-03-06T04:11:57;3.50;90.60
85671;DHT22;76102;50.890;3.932;2024-03-06T04:14:23;3.50;90.90
85671;DHT22;76102;50.890;3.932;2024-03-06T04:16:50;3.50;90.90
85671;DHT22;76102;50.890;3.932;2024-03-06T04:19:22;3.60;91.20
85671;DHT22;76102;50.890;3.932;2024-03-06T04:21:50;3.80;90.80
85671;DHT22;76102;50.890;3.932;2024-03-06T04:24:18;4.40;88.40
85671;DHT22;76102;50.890;3.932;2024-03-06T04:26:48;4.10;88.40
85671;DHT22;76102;50.890;3.932;2024-03-06T04:29:14;4.60;87.60
85671;DHT22;76102;50.890;3.932;2024-03-06T04:31:41;4.70;86.20
85671;DHT22;76102;50.890;3.932;2024-03-06T04:34:08;4.40;86.60
85671;DHT22;76102;50.890;3.932;2024-03-06T04:36:34;4.20;88.10
85671;DHT22;76102;50.890;3.932;2024-03-06T04:39:00;4.10;88.40
85671;DHT22;76102;50.890;3.932;2024-03-06T04:41:28;4.20;88.50
85671;DHT22;76102;50.890;3.932;2024-03-06T04:43:55;4.30;87.70
85671;DHT22;76102;50.890;3.932;2024-03-06T04:46:25;4.50;86.40
85671;DHT22;76102;50.890;3.932;2024-03-06T04:48:53;4.80;85.70
85671;DHT22;76102;50.890;3.932;2024-03-06T04:51:19;4.80;85.80
85671;DHT22;76102;50.890;3.932;2024-03-06T04:53:47;5.00;86.10
85671;DHT22;76102;50.890;3.932;2024-03-06T04:56:15;5.10;86.00
85671;DHT22;76102;50.890;3.932;2024-03-06T04:58:44;5.00;86.70
85671;DHT22;76102;50.890;3.932;2024-03-06T05:01:14;4.70;87.80
85671;DHT22;76102;50.890;3.932;2024-03-06T05:03:42;4.60;89.40
85671;DHT22;76102;50.890;3.932;2024-03-06T05:06:08;4.70;89.10
85671;DHT22;76102;50.890;3.932;2024-03-06T05:08:36;4.50;89.00
85671;DHT22;76102;50.890;3.932;2024-03-06T05:11:04;4.30;89.30
85671;DHT22;76102;50.890;3.932;2024-03-06T05:13:29;4.10;90.50
85671;DHT22;76102;50.890;3.932;2024-03-06T05:15:55;4.50;89.70
85671;DHT22;76102;50.890;3.932;2024-03-06T05:18:23;4.30;89.90
85671;DHT22;76102;50.890;3.932;2024-03-06T05:20:53;4.10;90.60
85671;DHT22;76102;50.890;3.932;2024-03-06T05:23:19;3.80;90.80
85671;DHT22;76102;50.890;3.932;2024-03-06T05:25:48;3.80;91.00
85671;DHT22;76102;50.890;3.932;2024-03-06T05:28:14;3.90;91.00
85671;DHT22;76102;50.890;3.932;2024-03-06T05:30:40;4.00;90.50
85671;DHT22;76102;50.890;3.932;2024-03-06T05:33:05;4.00;90.40
85671;DHT22;76102;50.890;3.932;2024-03-06T05:35:31;4.30;90.10
85671;DHT22;76102;50.890;3.932;2024-03-06T05:37:59;4.40;89.60
85671;DHT22;76102;50.890;3.932;2024-03-06T05:40:27;4.30;89.80
85671;DHT22;76102;50.890;3.932;2024-03-06T05:42:52;4.30;89.30
85671;DHT22;76102;50.890;3.932;2024-03-06T05:45:18;4.40;89.50
85671;DHT22;76102;50.890;3.932;2024-03-06T05:47:46;4.20;89.50
85671;DHT22;76102;50.890;3.932;2024-03-06T05:50:14;4.30;89.60
85671;DHT22;76102;50.890;3.932;2024-03-06T05:52:41;4.20;89.30
85671;DHT22;76102;50.890;3.932;2024-03-06T05:55:07;4.20;89.10
85671;DHT22;76102;50.890;3.932;2024-03-06T05:57:33;4.20;89.30
85671;DHT22;76102;50.890;3.932;2024-03-06T05:59:58;4.00;89.60
85671;DHT22;76102;50.890;3.932;2024-03-06T06:02:24;3.70;90.50
85671;DHT22;76102;50.890;3.932;2024-03-06T06:04:49;3.50;90.90
85671;DHT22;76102;50.890;3.932;2024-03-06T06:07:15;3.40;91.20
85671;DHT22;76102;50.890;3.932;2024-03-06T06:09:43;3.50;91.10
85671;DHT22;76102;50.890;3.932;2024-03-06T06:12:09;3.30;90.90
85671;DHT22;76102;50.890;3.932;2024-03-06T06:14:34;3.20;91.20
85671;DHT22;76102;50.890;3.932;2024-03-06T06:17:04;3.20;91.40
85671;DHT22;76102;50.890;3.932;2024-03-06T06:19:30;3.20;91.30
85671;DHT22;76102;50.890;3.932;2024-03-06T06:21:56;3.20;91.20
85671;DHT22;76102;50.890;3.932;2024-03-06T06:24:22;3.50;90.80
85671;DHT22;76102;50.890;3.932;2024-03-06T06:26:50;3.70;89.20
85671;DHT22;76102;50.890;3.932;2024-03-06T06:29:18;3.90;89.10
85671;DHT22;76102;50.890;3.932;2024-03-06T06:31:44;3.70;88.60
85671;DHT22;76102;50.890;3.932;2024-03-06T06:34:10;3.70;89.20
85671;DHT22;76102;50.890;3.932;2024-03-06T06:36:36;3.70;89.70
85671;DHT22;76102;50.890;3.932;2024-03-06T06:39:06;3.50;89.60
85671;DHT22;76102;50.890;3.932;2024-03-06T06:41:31;3.50;90.00
85671;DHT22;76102;50.890;3.932;2024-03-06T06:43:57;3.90;88.90
85671;DHT22;76102;50.890;3.932;2024-03-06T06:46:25;3.80;87.30
85671;DHT22;76102;50.890;3.932;2024-03-06T06:48:53;3.50;88.80
85671;DHT22;76102;50.890;3.932;2024-03-06T06:51:21;3.40;90.00
85671;DHT22;76102;50.890;3.932;2024-03-06T06:53:50;3.40;90.20
85671;DHT22;76102;50.890;3.932;2024-03-06T06:56:16;3.30;90.30
85671;DHT22;76102;50.890;3.932;2024-03-06T06:58:44;3.30;90.40
85671;DHT22;76102;50.890;3.932;2024-03-06T07:01:10;3.50;90.30
85671;DHT22;76102;50.890;3.932;2024-03-06T07:03:38;3.90;88.00
85671;DHT22;76102;50.890;3.932;2024-03-06T07:06:03;4.30;86.90
85671;DHT22;76102;50.890;3.932;2024-03-06T07:08:32;4.50;86.40
85671;DHT22;76102;50.890;3.932;2024-03-06T07:11:00;4.50;86.90
85671;DHT22;76102;50.890;3.932;2024-03-06T07:13:28;4.50;87.30
85671;DHT22;76102;50.890;3.932;2024-03-06T07:15:54;4.20;89.50
85671;DHT22;76102;50.890;3.932;2024-03-06T07:18:20;4.20;90.30
85671;DHT22;76102;50.890;3.932;2024-03-06T07:20:45;4.60;90.30
85671;DHT22;76102;50.890;3.932;2024-03-06T07:23:12;5.10;90.60
85671;DHT22;76102;50.890;3.932;2024-03-06T07:25:38;5.70;90.80
85671;DHT22;76102;50.890;3.932;2024-03-06T07:28:04;6.30;90.50
85671;DHT22;76102;50.890;3.932;2024-03-06T07:30:32;6.00;84.00
85671;DHT22;76102;50.890;3.932;2024-03-06T07:33:00;6.20;83.70
85671;DHT22;76102;50.890;3.932;2024-03-06T07:35:26;6.20;84.70
85671;DHT22;76102;50.890;3.932;2024-03-06T07:37:54;6.00;85.20
85671;DHT22;76102;50.890;3.932;2024-03-06T07:40:19;6.00;85.50
85671;DHT22;76102;50.890;3.932;2024-03-06T07:42:45;6.60;87.10
85671;DHT22;76102;50.890;3.932;2024-03-06T07:45:11;6.90;83.00
85671;DHT22;76102;50.890;3.932;2024-03-06T07:47:41;7.10;81.40
85671;DHT22;76102;50.890;3.932;2024-03-06T07:50:10;8.40;81.40
85671;DHT22;76102;50.890;3.932;2024-03-06T07:52:36;9.50;76.10
85671;DHT22;76102;50.890;3.932;2024-03-06T07:55:05;9.60;72.70
85671;DHT22;76102;50.890;3.932;2024-03-06T07:57:35;11.00;71.80
85671;DHT22;76102;50.890;3.932;2024-03-06T08:00:02;11.70;67.50
85671;DHT22;76102;50.890;3.932;2024-03-06T08:02:33;12.80;66.40
85671;DHT22;76102;50.890;3.932;2024-03-06T08:05:00;14.10;61.10
85671;DHT22;76102;50.890;3.932;2024-03-06T08:07:26;14.70;59.80
85671;DHT22;76102;50.890;3.932;2024-03-06T08:09:52;14.30;58.50
85671;DHT22;76102;50.890;3.932;2024-03-06T08:12:19;14.00;60.30
85671;DHT22;76102;50.890;3.932;2024-03-06T08:14:47;14.50;59.80
85671;DHT22;76102;50.890;3.932;2024-03-06T08:17:15;14.60;58.50
85671;DHT22;76102;50.890;3.932;2024-03-06T08:19:41;14.40;59.20
85671;DHT22;76102;50.890;3.932;2024-03-06T08:22:09;14.90;57.20
85671;DHT22;76102;50.890;3.932;2024-03-06T08:24:34;15.30;57.70
85671;DHT22;76102;50.890;3.932;2024-03-06T08:27:00;14.70;58.60
85671;DHT22;76102;50.890;3.932;2024-03-06T08:29:28;14.40;58.10
85671;DHT22;76102;50.890;3.932;2024-03-06T08:31:54;14.20;59.70
85671;DHT22;76102;50.890;3.932;2024-03-06T08:34:25;14.60;59.80
85671;DHT22;76102;50.890;3.932;2024-03-06T08:36:53;14.70;58.20
85671;DHT22;76102;50.890;3.932;2024-03-06T08:39:22;14.30;59.10
85671;DHT22;76102;50.890;3.932;2024-03-06T08:41:48;14.40;59.20
85671;DHT22;76102;50.890;3.932;2024-03-06T08:44:19;15.50;57.30
85671;DHT22;76102;50.890;3.932;2024-03-06T08:46:45;15.20;56.40
85671;DHT22;76102;50.890;3.932;2024-03-06T08:49:11;14.80;57.60
85671;DHT22;76102;50.890;3.932;2024-03-06T08:51:38;15.70;54.90
85671;DHT22;76102;50.890;3.932;2024-03-06T08:54:03;14.80;57.90
85671;DHT22;76102;50.890;3.932;2024-03-06T08:56:29;15.50;56.60
85671;DHT22;76102;50.890;3.932;2024-03-06T08:58:57;15.50;56.90
85671;DHT22;76102;50.890;3.932;2024-03-06T09:01:23;15.40;56.10
85671;DHT22;76102;50.890;3.932;2024-03-06T09:03:48;15.70;55.70
85671;DHT22;76102;50.890;3.932;2024-03-06T09:06:14;15.60;56.70
85671;DHT22;76102;50.890;3.932;2024-03-06T09:08:40;15.40;57.60
85671;DHT22;76102;50.890;3.932;2024-03-06T09:11:10;16.30;55.70
85671;DHT22;76102;50.890;3.932;2024-03-06T09:13:35;17.00;54.30
85671;DHT22;76102;50.890;3.932;2024-03-06T09:16:04;16.60;53.10
85671;DHT22;76102;50.890;3.932;2024-03-06T09:18:37;17.50;52.40
85671;DHT22;76102;50.890;3.932;2024-03-06T09:21:05;17.70;50.60
85671;DHT22;76102;50.890;3.932;2024-03-06T09:23:33;16.30;54.60
85671;DHT22;76102;50.890;3.932;2024-03-06T09:26:04;16.10;55.50
85671;DHT22;76102;50.890;3.932;2024-03-06T09:28:32;15.80;55.70
85671;DHT22;76102;50.890;3.932;2024-03-06T09:31:00;16.40;55.40
85671;DHT22;76102;50.890;3.932;2024-03-06T09:33:26;16.20;54.90
85671;DHT22;76102;50.890;3.932;2024-03-06T09:35:54;16.60;55.50
85671;DHT22;76102;50.890;3.932;2024-03-06T09:38:22;18.30;49.80
85671;DHT22;76102;50.890;3.932;2024-03-06T09:40:51;18.60;49.50
85671;DHT22;76102;50.890;3.932;2024-03-06T09:43:20;17.30;51.00
85671;DHT22;76102;50.890;3.932;2024-03-06T09:45:48;16.70;53.80
85671;DHT22;76102;50.890;3.932;2024-03-06T09:48:14;17.00;51.10
85671;DHT22;76102;50.890;3.932;2024-03-06T09:50:43;17.00;53.10
85671;DHT22;76102;50.890;3.932;2024-03-06T09:53:14;17.50;52.20
85671;DHT22;76102;50.890;3.932;2024-03-06T09:55:41;18.90;49.30
85671;DHT22;76102;50.890;3.932;2024-03-06T09:58:07;19.20;49.50
85671;DHT22;76102;50.890;3.932;2024-03-06T10:00:38;20.70;45.50
85671;DHT22;76102;50.890;3.932;2024-03-06T10:03:03;18.80;47.90
85671;DHT22;76102;50.890;3.932;2024-03-06T10:05:33;18.00;50.00
85671;DHT22;76102;50.890;3.932;2024-03-06T10:08:05;17.00;50.80
85671;DHT22;76102;50.890;3.932;2024-03-06T10:10:31;17.00;54.20
85671;DHT22;76102;50.890;3.932;2024-03-06T10:13:01;16.50;53.40
85671;DHT22;76102;50.890;3.932;2024-03-06T10:15:27;16.40;55.10
85671;DHT22;76102;50.890;3.932;2024-03-06T10:18:30;16.60;54.00
85671;DHT22;76102;50.890;3.932;2024-03-06T10:20:57;18.00;52.50
85671;DHT22;76102;50.890;3.932;2024-03-06T10:23:24;18.10;49.30
85671;DHT22;76102;50.890;3.932;2024-03-06T10:25:56;17.70;50.40
85671;DHT22;76102;50.890;3.932;2024-03-06T10:28:23;17.90;50.00
85671;DHT22;76102;50.890;3.932;2024-03-06T10:30:50;18.30;51.70
85671;DHT22;76102;50.890;3.932;2024-03-06T10:33:17;19.00;50.60
85671;DHT22;76102;50.890;3.932;2024-03-06T10:35:47;18.70;48.80
85671;DHT22;76102;50.890;3.932;2024-03-06T10:38:14;18.60;48.80
85671;DHT22;76102;50.890;3.932;2024-03-06T10:40:43;17.00;52.40
85671;DHT22;76102;50.890;3.932;2024-03-06T10:43:14;16.00;57.10
85671;DHT22;76102;50.890;3.932;2024-03-06T10:45:51;13.90;59.20
85671;DHT22;76102;50.890;3.932;2024-03-06T10:48:21;13.30;63.90
85671;DHT22;76102;50.890;3.932;2024-03-06T10:50:51;12.70;67.90
85671;DHT22;76102;50.890;3.932;2024-03-06T10:53:18;12.70;66.50
85671;DHT22;76102;50.890;3.932;2024-03-06T10:55:47;12.40;67.70
85671;DHT22;76102;50.890;3.932;2024-03-06T10:58:15;12.70;68.00
85671;DHT22;76102;50.890;3.932;2024-03-06T11:00:45;13.10;65.70
85671;DHT22;76102;50.890;3.932;2024-03-06T11:03:14;13.00;65.40
85671;DHT22;76102;50.890;3.932;2024-03-06T11:05:44;13.40;67.20
85671;DHT22;76102;50.890;3.932;2024-03-06T11:08:13;13.40;63.60
85671;DHT22;76102;50.890;3.932;2024-03-06T11:10:41;13.20;67.20
85671;DHT22;76102;50.890;3.932;2024-03-06T11:15:47;13.30;64.10
85671;DHT22;76102;50.890;3.932;2024-03-06T11:23:34;12.90;67.20
85671;DHT22;76102;50.890;3.932;2024-03-06T11:26:05;12.50;64.10
85671;DHT22;76102;50.890;3.932;2024-03-06T11:28:32;12.20;65.30
85671;DHT22;76102;50.890;3.932;2024-03-06T11:33:34;12.50;64.50
85671;DHT22;76102;50.890;3.932;2024-03-06T11:39:07;11.70;65.80
85671;DHT22;76102;50.890;3.932;2024-03-06T11:41:49;11.40;68.10
85671;DHT22;76102;50.890;3.932;2024-03-06T11:44:19;11.60;69.30
85671;DHT22;76102;50.890;3.932;2024-03-06T11:49:38;12.20;65.00
85671;DHT22;76102;50.890;3.932;2024-03-06T11:52:10;12.50;65.50
85671;DHT22;76102;50.890;3.932;2024-03-06T11:54:41;12.80;65.20
85671;DHT22;76102;50.890;3.932;2024-03-06T11:57:06;13.30;62.80
85671;DHT22;76102;50.890;3.932;2024-03-06T11:59:38;12.70;62.40
85671;DHT22;76102;50.890;3.932;2024-03-06T12:02:05;12.90;65.00
85671;DHT22;76102;50.890;3.932;2024-03-06T12:04:36;13.10;62.20
85671;DHT22;76102;50.890;3.932;2024-03-06T12:07:07;12.70;63.90
85671;DHT22;76102;50.890;3.932;2024-03-06T12:09:37;12.70;63.80
85671;DHT22;76102;50.890;3.932;2024-03-06T12:12:06;12.70;63.70
85671;DHT22;76102;50.890;3.932;2024-03-06T12:14:35;11.80;65.60
85671;DHT22;76102;50.890;3.932;2024-03-06T12:17:02;11.30;67.10
85671;DHT22;76102;50.890;3.932;2024-03-06T12:19:34;11.00;67.70
85671;DHT22;76102;50.890;3.932;2024-03-06T12:22:01;10.90;68.00
85671;DHT22;76102;50.890;3.932;2024-03-06T12:24:29;11.10;66.90
85671;DHT22;76102;50.890;3.932;2024-03-06T12:27:01;11.40;66.40
85671;DHT22;76102;50.890;3.932;2024-03-06T12:29:34;11.60;67.20
85671;DHT22;76102;50.890;3.932;2024-03-06T12:32:00;11.10;66.40
85671;DHT22;76102;50.890;3.932;2024-03-06T12:34:27;11.30;67.20
85671;DHT22;76102;50.890;3.932;2024-03-06T12:36:53;11.60;64.30
85671;DHT22;76102;50.890;3.932;2024-03-06T12:39:23;11.20;65.20
85671;DHT22;76102;50.890;3.932;2024-03-06T12:41:51;10.90;66.60
85671;DHT22;76102;50.890;3.932;2024-03-06T12:44:19;10.70;67.80
85671;DHT22;76102;50.890;3.932;2024-03-06T12:46:45;11.00;68.30
85671;DHT22;76102;50.890;3.932;2024-03-06T12:49:14;11.10;65.40
85671;DHT22;76102;50.890;3.932;2024-03-06T12:51:40;11.20;65.00
85671;DHT22;76102;50.890;3.932;2024-03-06T12:54:05;11.10;64.30
85671;DHT22;76102;50.890;3.932;2024-03-06T12:56:31;11.20;66.40
85671;DHT22;76102;50.890;3.932;2024-03-06T12:58:59;11.50;64.60
85671;DHT22;76102;50.890;3.932;2024-03-06T13:01:28;11.40;62.50
85671;DHT22;76102;50.890;3.932;2024-03-06T13:03:53;11.30;64.80
85671;DHT22;76102;50.890;3.932;2024-03-06T13:06:19;11.40;63.50
85671;DHT22;76102;50.890;3.932;2024-03-06T13:08:45;11.30;65.20
85671;DHT22;76102;50.890;3.932;2024-03-06T13:11:10;11.60;66.40
85671;DHT22;76102;50.890;3.932;2024-03-06T13:13:40;11.80;63.10
85671;DHT22;76102;50.890;3.932;2024-03-06T13:16:06;11.70;63.20
85671;DHT22;76102;50.890;3.932;2024-03-06T13:18:35;11.40;63.90
85671;DHT22;76102;50.890;3.932;2024-03-06T13:21:01;11.60;63.40
85671;DHT22;76102;50.890;3.932;2024-03-06T13:23:29;11.60;62.10
85671;DHT22;76102;50.890;3.932;2024-03-06T13:25:56;11.60;61.20
85671;DHT22;76102;50.890;3.932;2024-03-06T13:28:24;11.80;63.30
85671;DHT22;76102;50.890;3.932;2024-03-06T13:30:49;12.00;60.00
85671;DHT22;76102;50.890;3.932;2024-03-06T13:33:16;12.10;58.60
85671;DHT22;76102;50.890;3.932;2024-03-06T13:35:46;12.10;57.80
85671;DHT22;76102;50.890;3.932;2024-03-06T13:38:12;11.80;60.20
85671;DHT22;76102;50.890;3.932;2024-03-06T13:40:40;11.80;58.00
85671;DHT22;76102;50.890;3.932;2024-03-06T13:43:05;11.90;58.50
85671;DHT22;76102;50.890;3.932;2024-03-06T13:45:36;12.10;58.00
85671;DHT22;76102;50.890;3.932;2024-03-06T13:48:13;11.90;57.30
85671;DHT22;76102;50.890;3.932;2024-03-06T13:50:39;11.70;57.60
85671;DHT22;76102;50.890;3.932;2024-03-06T13:53:05;11.60;59.90
85671;DHT22;76102;50.890;3.932;2024-03-06T13:55:31;11.70;59.30
85671;DHT22;76102;50.890;3.932;2024-03-06T13:58:00;11.70;59.30
85671;DHT22;76102;50.890;3.932;2024-03-06T14:00:27;11.50;58.70
85671;DHT22;76102;50.890;3.932;2024-03-06T14:02:52;11.50;59.50
85671;DHT22;76102;50.890;3.932;2024-03-06T14:05:18;11.60;59.00
85671;DHT22;76102;50.890;3.932;2024-03-06T14:07:52;11.50;59.60
85671;DHT22;76102;50.890;3.932;2024-03-06T14:10:18;12.00;61.00
85671;DHT22;76102;50.890;3.932;2024-03-06T14:12:50;12.60;59.80
85671;DHT22;76102;50.890;3.932;2024-03-06T14:15:18;12.90;57.20
85671;DHT22;76102;50.890;3.932;2024-03-06T14:17:48;13.10;56.40
85671;DHT22;76102;50.890;3.932;2024-03-06T14:20:13;12.90;54.70
85671;DHT22;76102;50.890;3.932;2024-03-06T14:22:43;12.80;55.50
85671;DHT22;76102;50.890;3.932;2024-03-06T14:25:12;12.60;56.10
85671;DHT22;76102;50.890;3.932;2024-03-06T14:27:38;12.90;59.10
85671;DHT22;76102;50.890;3.932;2024-03-06T14:30:06;13.20;56.30
85671;DHT22;76102;50.890;3.932;2024-03-06T14:32:32;13.20;55.70
85671;DHT22;76102;50.890;3.932;2024-03-06T14:34:58;12.70;56.60
85671;DHT22;76102;50.890;3.932;2024-03-06T14:37:24;12.30;54.70
85671;DHT22;76102;50.890;3.932;2024-03-06T14:39:50;12.50;55.60
85671;DHT22;76102;50.890;3.932;2024-03-06T14:42:20;12.70;56.20
85671;DHT22;76102;50.890;3.932;2024-03-06T14:44:46;12.20;56.50
85671;DHT22;76102;50.890;3.932;2024-03-06T14:47:12;12.00;57.20
85671;DHT22;76102;50.890;3.932;2024-03-06T14:49:42;12.20;56.20
85671;DHT22;76102;50.890;3.932;2024-03-06T14:52:10;12.30;56.30
85671;DHT22;76102;50.890;3.932;2024-03-06T14:54:39;12.60;57.40
85671;DHT22;76102;50.890;3.932;2024-03-06T14:57:06;12.70;54.80
85671;DHT22;76102;50.890;3.932;2024-03-06T14:59:32;13.00;53.50
85671;DHT22;76102;50.890;3.932;2024-03-06T15:02:00;13.10;53.90
85671;DHT22;76102;50.890;3.932;2024-03-06T15:04:26;13.30;54.40
85671;DHT22;76102;50.890;3.932;2024-03-06T15:06:52;13.60;51.90
85671;DHT22;76102;50.890;3.932;2024-03-06T15:09:18;13.50;50.80
85671;DHT22;76102;50.890;3.932;2024-03-06T15:11:48;13.30;53.00
85671;DHT22;76102;50.890;3.932;2024-03-06T15:14:14;13.30;51.00
85671;DHT22;76102;50.890;3.932;2024-03-06T15:16:39;13.60;52.70
85671;DHT22;76102;50.890;3.932;2024-03-06T15:19:06;13.70;51.10
85671;DHT22;76102;50.890;3.932;2024-03-06T15:21:31;13.70;50.90
85671;DHT22;76102;50.890;3.932;2024-03-06T15:23:57;13.60;51.10
85671;DHT22;76102;50.890;3.932;2024-03-06T15:26:23;13.70;51.50
85671;DHT22;76102;50.890;3.932;2024-03-06T15:28:51;13.80;54.50
85671;DHT22;76102;50.890;3.932;2024-03-06T15:31:18;13.50;55.80
85671;DHT22;76102;50.890;3.932;2024-03-06T15:33:44;13.50;55.10
85671;DHT22;76102;50.890;3.932;2024-03-06T15:36:15;13.50;55.10
85671;DHT22;76102;50.890;3.932;2024-03-06T15:38:42;12.90;56.30
85671;DHT22;76102;50.890;3.932;2024-03-06T15:41:12;12.90;57.70
85671;DHT22;76102;50.890;3.932;2024-03-06T15:43:41;12.80;56.70
85671;DHT22;76102;50.890;3.932;2024-03-06T15:46:09;13.20;57.70
85671;DHT22;76102;50.890;3.932;2024-03-06T15:48:35;13.10;55.60
85671;DHT22;76102;50.890;3.932;2024-03-06T15:51:03;13.50;56.80
85671;DHT22;76102;50.890;3.932;2024-03-06T15:53:31;13.60;53.90
85671;DHT22;76102;50.890;3.932;2024-03-06T15:55:57;13.20;54.40
85671;DHT22;76102;50.890;3.932;2024-03-06T15:58:25;12.70;58.70
85671;DHT22;76102;50.890;3.932;2024-03-06T16:00:53;13.10;57.70
85671;DHT22;76102;50.890;3.932;2024-03-06T16:03:21;13.20;57.20
85671;DHT22;76102;50.890;3.932;2024-03-06T16:05:47;13.40;58.00
85671;DHT22;76102;50.890;3.932;2024-03-06T16:08:14;13.20;56.90
85671;DHT22;76102;50.890;3.932;2024-03-06T16:10:39;13.30;57.00
85671;DHT22;76102;50.890;3.932;2024-03-06T16:13:08;13.40;56.50
85671;DHT22;76102;50.890;3.932;2024-03-06T16:15:35;13.30;56.10
85671;DHT22;76102;50.890;3.932;2024-03-06T16:18:01;13.10;54.50
85671;DHT22;76102;50.890;3.932;2024-03-06T16:20:29;13.40;56.80
85671;DHT22;76102;50.890;3.932;2024-03-06T16:22:57;13.70;56.30
85671;DHT22;76102;50.890;3.932;2024-03-06T16:25:25;14.20;54.30
85671;DHT22;76102;50.890;3.932;2024-03-06T16:27:54;14.00;54.30
85671;DHT22;76102;50.890;3.932;2024-03-06T16:30:19;13.60;56.30
85671;DHT22;76102;50.890;3.932;2024-03-06T16:32:45;13.50;54.70
85671;DHT22;76102;50.890;3.932;2024-03-06T16:35:14;13.30;54.90
85671;DHT22;76102;50.890;3.932;2024-03-06T16:37:40;13.50;57.50
85671;DHT22;76102;50.890;3.932;2024-03-06T16:40:06;13.70;55.50
85671;DHT22;76102;50.890;3.932;2024-03-06T16:42:35;13.90;54.50
85671;DHT22;76102;50.890;3.932;2024-03-06T16:45:00;13.50;54.80